Time;durP1;ratioP1;P1;durP2;ratioP2;P2;SDS_P1;SDS_P2;PMS_P1;PMS_P2;Temp;Humidity;BMP_temperature;BMP_pressure;BME280_temperature;BME280_humidity;BME280_pressure;Samples;Min_cycle;Max_cycle;Signal;HPM_P1;HPM_P2
2022/05/21 00:01:05;;;;;;;10.93;2.40;;;;;;;;;;6253254;28;20044;-83
2022/05/21 00:04:05;;;;;;;7.00;2.03;;;;;;;;;;6247106;28;20020;-83
2022/05/21 00:07:06;;;;;;;9.67;3.33;;;;;;;;;;6252530;28;20013;-83
2022/05/21 00:10:07;;;;;;;7.83;2.20;;;;;;;;;;6252320;28;20432;-83
2022/05/21 00:13:09;;;;;;;8.45;2.30;;;;;;;;;;6247481;28;20021;-82
2022/05/21 00:16:09;;;;;;;10.00;2.30;;;;;;;;;;6254017;28;20384;-82
2022/05/21 00:19:09;;;;;;;3.90;2.30;;;;;;;;;;6252560;28;20796;-82
2022/05/21 00:22:09;;;;;;;5.77;2.10;;;;;;;;;;6248193;28;20017;-83
2022/05/21 00:25:10;;;;;;;9.70;2.90;;;;;;;;;;6252044;28;20021;-82
2022/05/21 00:28:10;;;;;;;3.20;2.30;;;;;;;;;;6253208;28;20022;-83
2022/05/21 00:31:11;;;;;;;3.93;1.97;;;;;;;;;;6253375;28;20013;-82
2022/05/21 00:34:12;;;;;;;5.10;2.42;;;;;;;;;;6252047;28;20384;-83
2022/05/21 00:37:12;;;;;;;7.77;2.37;;;;;;;;;;6251137;28;20021;-82
2022/05/21 00:40:12;;;;;;;7.90;2.23;;;;;;;;;;6251059;28;20029;-82
2022/05/21 00:43:31;;;;;;;8.13;2.40;;;;;;;;;;6252924;28;20017;-83
2022/05/21 00:46:42;;;;;;;9.65;2.45;;;;;;;;;;6251645;28;20024;-83
2022/05/21 00:49:44;;;;;;;4.40;2.05;;;;;;;;;;6251880;28;20120;-82
2022/05/21 00:52:44;;;;;;;7.68;2.22;;;;;;;;;;6247545;28;20099;-82
2022/05/21 00:55:45;;;;;;;5.77;2.10;;;;;;;;;;6255971;28;20041;-82
2022/05/21 01:02:06;;;;;;;5.43;2.08;;;;;;;;;;6251744;28;20029;-83
2022/05/21 01:05:08;;;;;;;7.50;2.28;;;;;;;;;;6250144;28;20053;-83
2022/05/21 01:08:09;;;;;;;2.67;1.75;;;;;;;;;;6249919;28;20025;-82
2022/05/21 01:11:14;;;;;;;8.00;2.27;;;;;;;;;;6249851;28;20025;-82
2022/05/21 01:14:16;;;;;;;3.67;1.95;;;;;;;;;;6251446;28;20045;-83
2022/05/21 01:17:19;;;;;;;4.53;1.80;;;;;;;;;;6251837;28;20032;-82
2022/05/21 01:20:20;;;;;;;4.75;2.00;;;;;;;;;;6251069;28;20382;-82
2022/05/21 01:23:20;;;;;;;4.30;2.40;;;;;;;;;;6252352;28;20088;-83
2022/05/21 01:26:21;;;;;;;6.67;2.93;;;;;;;;;;6250653;28;20021;-82
2022/05/21 01:29:24;;;;;;;7.37;2.53;;;;;;;;;;6250483;28;20021;-83
2022/05/21 01:32:24;;;;;;;5.57;1.75;;;;;;;;;;6252849;28;20036;-83
2022/05/21 01:35:25;;;;;;;4.43;2.03;;;;;;;;;;6251788;28;20021;-82
2022/05/21 01:38:26;;;;;;;4.10;1.67;;;;;;;;;;6249194;28;20018;-82
2022/05/21 01:41:26;;;;;;;4.95;2.08;;;;;;;;;;6250314;28;20021;-82
2022/05/21 01:44:39;;;;;;;4.20;2.07;;;;;;;;;;6251213;28;20082;-82
2022/05/21 01:47:42;;;;;;;6.47;2.15;;;;;;;;;;6252620;28;20044;-82
2022/05/21 01:50:42;;;;;;;2.90;1.83;;;;;;;;;;6249152;28;20033;-82
2022/05/21 01:53:42;;;;;;;3.37;2.07;;;;;;;;;;6247622;28;20188;-82
2022/05/21 01:56:42;;;;;;;4.83;2.97;;;;;;;;;;6252052;28;20025;-81
2022/05/21 01:59:43;;;;;;;2.20;1.67;;;;;;;;;;6250274;28;20060;-81
2022/05/21 02:02:43;;;;;;;6.40;2.63;;;;;;;;;;6248671;28;20136;-81
2022/05/21 02:05:44;;;;;;;5.73;2.30;;;;;;;;;;6250667;28;20021;-82
2022/05/21 02:08:45;;;;;;;5.10;2.45;;;;;;;;;;6251946;28;20017;-82
2022/05/21 02:11:45;;;;;;;4.83;2.27;;;;;;;;;;6249557;28;20468;-81
2022/05/21 02:14:45;;;;;;;5.00;2.60;;;;;;;;;;6246575;28;20075;-82
2022/05/21 02:17:45;;;;;;;5.37;2.00;;;;;;;;;;6251158;28;20052;-81
2022/05/21 02:20:47;;;;;;;3.63;2.40;;;;;;;;;;6247942;28;20025;-82
2022/05/21 02:23:48;;;;;;;5.85;2.38;;;;;;;;;;6248923;28;20500;-81
2022/05/21 02:26:48;;;;;;;6.90;2.77;;;;;;;;;;6249852;28;20064;-82
2022/05/21 02:29:48;;;;;;;6.53;2.37;;;;;;;;;;6249749;28;20082;-81
2022/05/21 02:32:49;;;;;;;5.70;3.10;;;;;;;;;;6248427;28;20006;-81
2022/05/21 02:35:49;;;;;;;6.63;2.43;;;;;;;;;;6248725;28;20114;-81
2022/05/21 02:45:28;;;;;;;7.28;3.20;;;;;;;;;;6250129;28;20037;-81
2022/05/21 02:48:29;;;;;;;4.85;3.35;;;;;;;;;;6247410;28;20025;-82
2022/05/21 02:51:29;;;;;;;5.40;2.70;;;;;;;;;;6247884;28;20091;-82
2022/05/21 02:54:30;;;;;;;3.70;2.13;;;;;;;;;;6248071;28;20493;-82
2022/05/21 02:57:30;;;;;;;10.03;2.70;;;;;;;;;;6248809;28;20013;-82
2022/05/21 03:00:31;;;;;;;8.57;2.93;;;;;;;;;;6248191;28;20100;-81
2022/05/21 03:03:31;;;;;;;5.70;2.40;;;;;;;;;;6248513;28;20013;-82
2022/05/21 03:06:31;;;;;;;6.20;2.83;;;;;;;;;;6248935;28;20080;-81
2022/05/21 03:12:55;;;;;;;9.23;3.60;;;;;;;;;;6247726;28;20393;-81
2022/05/21 03:15:56;;;;;;;5.03;2.42;;;;;;;;;;6254359;28;20021;-81
2022/05/21 03:18:56;;;;;;;4.90;2.35;;;;;;;;;;6253830;28;20105;-81
2022/05/21 03:21:57;;;;;;;5.90;2.50;;;;;;;;;;6254456;28;20037;-81
2022/05/21 03:24:57;;;;;;;5.23;2.60;;;;;;;;;;6267000;28;20028;-81
2022/05/21 03:27:57;;;;;;;7.27;2.97;;;;;;;;;;6252705;28;20071;-81
2022/05/21 03:30:57;;;;;;;12.20;2.60;;;;;;;;;;6251250;28;20013;-82
2022/05/21 03:33:58;;;;;;;7.37;2.77;;;;;;;;;;6251136;28;20037;-81
2022/05/21 03:36:59;;;;;;;5.80;2.87;;;;;;;;;;6250680;28;20036;-81
2022/05/21 03:39:59;;;;;;;6.63;2.23;;;;;;;;;;6250534;28;20366;-82
2022/05/21 03:42:59;;;;;;;6.03;3.00;;;;;;;;;;6249082;28;20021;-82
2022/05/21 03:45:59;;;;;;;6.23;2.90;;;;;;;;;;6249838;28;20052;-82
2022/05/21 03:49:00;;;;;;;7.20;2.67;;;;;;;;;;6247676;28;20028;-81
2022/05/21 03:52:01;;;;;;;13.57;3.00;;;;;;;;;;6246750;28;20029;-81
2022/05/21 03:55:01;;;;;;;9.63;2.63;;;;;;;;;;6249797;28;20025;-81
2022/05/21 03:58:02;;;;;;;5.43;2.00;;;;;;;;;;6248490;28;20029;-82
2022/05/21 04:01:02;;;;;;;7.97;3.93;;;;;;;;;;6247105;28;20438;-81
2022/05/21 04:04:03;;;;;;;8.97;3.33;;;;;;;;;;6248867;28;20435;-81
2022/05/21 04:07:04;;;;;;;6.43;3.33;;;;;;;;;;6247697;28;20474;-81
2022/05/21 04:10:04;;;;;;;4.97;2.37;;;;;;;;;;6250213;28;20504;-81
2022/05/21 04:13:04;;;;;;;4.33;2.93;;;;;;;;;;6248175;28;20067;-81
2022/05/21 04:16:05;;;;;;;8.73;2.83;;;;;;;;;;6251520;28;20028;-81
2022/05/21 04:19:05;;;;;;;7.07;2.97;;;;;;;;;;6249807;28;20366;-82
2022/05/21 04:22:06;;;;;;;5.83;2.60;;;;;;;;;;6248673;28;20049;-81
2022/05/21 04:25:06;;;;;;;4.93;2.60;;;;;;;;;;6250360;28;20017;-81
2022/05/21 04:28:07;;;;;;;11.30;4.07;;;;;;;;;;6248641;28;20022;-81
2022/05/21 04:31:07;;;;;;;9.60;2.70;;;;;;;;;;6249961;28;20022;-81
2022/05/21 04:34:07;;;;;;;6.83;2.23;;;;;;;;;;6254396;28;20026;-81
2022/05/21 04:37:08;;;;;;;5.00;3.73;;;;;;;;;;6253286;28;20024;-81
2022/05/21 04:40:10;;;;;;;5.47;2.80;;;;;;;;;;6254931;28;20031;-81
2022/05/21 04:43:11;;;;;;;6.55;2.72;;;;;;;;;;6233609;28;20025;-81
2022/05/21 04:46:11;;;;;;;8.50;4.00;;;;;;;;;;6238273;28;20432;-81
2022/05/21 04:49:11;;;;;;;10.80;2.93;;;;;;;;;;6244604;28;20017;-82
2022/05/21 04:52:12;;;;;;;13.23;2.73;;;;;;;;;;6237815;28;20117;-81
2022/05/21 04:55:12;;;;;;;5.07;2.70;;;;;;;;;;6242105;28;20367;-81
2022/05/21 04:58:12;;;;;;;8.87;2.30;;;;;;;;;;6240426;28;20076;-82
2022/05/21 05:01:12;;;;;;;7.67;2.70;;;;;;;;;;6257390;28;20068;-81
2022/05/21 05:04:13;;;;;;;5.77;2.77;;;;;;;;;;6251786;28;20025;-81
2022/05/21 05:07:13;;;;;;;8.27;3.03;;;;;;;;;;6253294;28;20034;-81
2022/05/21 05:10:13;;;;;;;2.93;1.73;;;;;;;;;;6252682;28;20082;-82
2022/05/21 05:13:14;;;;;;;5.93;2.60;;;;;;;;;;6241545;28;20539;-81
2022/05/21 05:16:15;;;;;;;6.22;2.33;;;;;;;;;;6241993;28;20018;-81
2022/05/21 05:19:15;;;;;;;4.53;2.10;;;;;;;;;;6244589;28;20021;-82
2022/05/21 05:22:15;;;;;;;8.90;2.80;;;;;;;;;;6243111;28;20029;-82
2022/05/21 05:25:15;;;;;;;8.63;2.23;;;;;;;;;;6237105;28;20022;-82
2022/05/21 05:28:23;;;;;;;6.10;2.50;;;;;;;;;;6236602;28;20084;-82
2022/05/21 05:31:23;;;;;;;7.50;2.40;;;;;;;;;;6250703;28;20535;-81
2022/05/21 05:34:23;;;;;;;5.17;2.20;;;;;;;;;;6246671;28;20384;-82
2022/05/21 05:37:23;;;;;;;3.40;1.53;;;;;;;;;;6244963;28;20485;-82
2022/05/21 05:40:24;;;;;;;4.47;2.83;;;;;;;;;;6250114;28;20021;-82
2022/05/21 05:43:25;;;;;;;5.07;2.33;;;;;;;;;;6241773;28;20017;-82
2022/05/21 05:46:25;;;;;;;5.23;2.10;;;;;;;;;;6257075;28;20124;-82
2022/05/21 05:49:25;;;;;;;9.20;1.90;;;;;;;;;;6258407;28;20013;-81
2022/05/21 05:52:26;;;;;;;8.10;2.47;;;;;;;;;;6257736;28;20574;-82
2022/05/21 05:55:26;;;;;;;8.17;2.03;;;;;;;;;;6258461;28;20462;-82
2022/05/21 06:01:45;;;;;;;3.83;1.90;;;;;;;;;;6259760;28;20018;-82
2022/05/21 06:04:46;;;;;;;6.97;2.97;;;;;;;;;;6252534;28;20013;-84
2022/05/21 06:07:50;;;;;;;5.17;2.30;;;;;;;;;;6256255;28;20009;-84
2022/05/21 06:10:51;;;;;;;7.63;2.03;;;;;;;;;;6253093;28;20021;-83
2022/05/21 06:13:51;;;;;;;11.25;2.08;;;;;;;;;;6243897;28;20025;-83
2022/05/21 06:16:52;;;;;;;8.90;1.60;;;;;;;;;;6248078;28;20396;-83
2022/05/21 06:19:53;;;;;;;6.63;2.13;;;;;;;;;;6251720;28;20021;-84
2022/05/21 06:22:53;;;;;;;6.50;1.70;;;;;;;;;;6249851;28;20041;-83
2022/05/21 06:25:53;;;;;;;13.53;2.57;;;;;;;;;;6249664;28;20108;-84
2022/05/21 06:28:54;;;;;;;10.67;2.20;;;;;;;;;;6245020;28;20277;-83
2022/05/21 06:31:54;;;;;;;6.07;1.67;;;;;;;;;;6253959;28;20024;-83
2022/05/21 06:34:54;;;;;;;7.80;2.30;;;;;;;;;;6246672;28;20025;-83
2022/05/21 06:37:54;;;;;;;7.33;2.00;;;;;;;;;;6250479;28;20025;-83
2022/05/21 06:40:55;;;;;;;6.03;1.80;;;;;;;;;;6252343;28;20025;-83
2022/05/21 06:43:55;;;;;;;5.93;2.10;;;;;;;;;;6238290;28;20532;-83
2022/05/21 06:46:56;;;;;;;6.27;1.70;;;;;;;;;;6250561;28;20554;-83
2022/05/21 06:49:57;;;;;;;4.40;1.50;;;;;;;;;;6249045;28;20559;-83
2022/05/21 06:52:57;;;;;;;5.50;1.70;;;;;;;;;;6250912;28;20040;-83
2022/05/21 06:55:57;;;;;;;8.57;1.80;;;;;;;;;;6249209;28;20260;-83
2022/05/21 06:58:57;;;;;;;6.53;1.57;;;;;;;;;;6249350;28;20109;-83
2022/05/21 07:01:58;;;;;;;2.30;0.90;;;;;;;;;;6242089;28;20433;-83
2022/05/21 07:08:24;;;;;;;13.35;1.20;;;;;;;;;;6250398;28;20096;-83
2022/05/21 07:11:25;;;;;;;9.50;1.15;;;;;;;;;;6234795;28;20036;-83
2022/05/21 07:14:25;;;;;;;12.07;1.37;;;;;;;;;;6240088;28;20018;-84
2022/05/21 07:17:25;;;;;;;5.30;1.10;;;;;;;;;;6234843;28;20018;-83
2022/05/21 07:20:26;;;;;;;4.47;1.00;;;;;;;;;;6231385;28;20517;-83
2022/05/21 07:23:27;;;;;;;6.80;1.10;;;;;;;;;;6237889;28;20017;-84
2022/05/21 07:26:28;;;;;;;;;;;;;;;;;;6240320;28;20897;-84
2022/05/21 07:29:28;;;;;;;8.53;0.63;;;;;;;;;;6258544;28;19952;-84
2022/05/21 07:32:28;;;;;;;4.63;0.73;;;;;;;;;;6233199;28;20018;-83
2022/05/21 07:35:29;;;;;;;2.80;0.93;;;;;;;;;;6228495;28;20014;-83
2022/05/21 07:38:29;;;;;;;4.30;0.70;;;;;;;;;;6244927;28;20029;-83
2022/05/21 07:41:30;;;;;;;4.30;0.70;;;;;;;;;;6242452;28;20762;-83
2022/05/21 07:44:30;;;;;;;5.80;0.87;;;;;;;;;;6249404;28;20384;-83
2022/05/21 07:47:30;;;;;;;8.60;1.27;;;;;;;;;;6249545;28;20294;-83
2022/05/21 07:50:30;;;;;;;7.80;0.57;;;;;;;;;;6249134;28;20071;-83
2022/05/21 07:53:32;;;;;;;7.27;0.93;;;;;;;;;;6241899;28;20048;-84
2022/05/21 07:56:33;;;;;;;9.93;1.30;;;;;;;;;;6247758;28;20085;-83
2022/05/21 07:59:33;;;;;;;5.13;0.90;;;;;;;;;;6237800;28;20024;-83
2022/05/21 08:02:34;;;;;;;3.37;0.60;;;;;;;;;;6234412;28;20457;-83
2022/05/21 08:05:35;;;;;;;5.27;0.70;;;;;;;;;;6235511;28;20025;-82
2022/05/21 08:08:35;;;;;;;7.30;0.90;;;;;;;;;;6251239;28;20511;-82
2022/05/21 08:11:36;;;;;;;8.63;1.10;;;;;;;;;;6245779;28;20031;-83
2022/05/21 08:14:36;;;;;;;4.57;1.00;;;;;;;;;;6251795;28;20021;-83
2022/05/21 08:17:36;;;;;;;11.17;0.83;;;;;;;;;;6253074;28;20037;-83
2022/05/21 08:20:37;;;;;;;12.67;1.03;;;;;;;;;;6253161;28;20018;-83
2022/05/21 08:26:56;;;;;;;9.75;1.70;;;;;;;;;;6252500;28;20029;-82
2022/05/21 08:29:57;;;;;;;17.80;1.70;;;;;;;;;;6250329;28;20500;-83
2022/05/21 08:33:00;;;;;;;15.87;1.17;;;;;;;;;;6243248;28;20021;-83
2022/05/21 08:36:01;;;;;;;7.65;1.55;;;;;;;;;;6243726;28;20036;-84
2022/05/21 08:39:01;;;;;;;12.80;1.03;;;;;;;;;;6234077;28;20025;-83
2022/05/21 08:42:08;;;;;;;1.93;0.47;;;;;;;;;;6241016;28;20037;-83
2022/05/21 08:45:22;;;;;;;8.63;1.33;;;;;;;;;;6249318;28;20017;-83
2022/05/21 08:48:23;;;;;;;8.70;1.58;;;;;;;;;;6253546;28;20062;-83
2022/05/21 08:51:27;;;;;;;12.80;1.70;;;;;;;;;;6254481;28;20611;-83
2022/05/21 08:54:31;;;;;;;9.88;1.10;;;;;;;;;;6253643;28;20049;-83
2022/05/21 08:57:48;;;;;;;3.63;1.10;;;;;;;;;;6251246;28;20087;-83
2022/05/21 09:00:48;;;;;;;3.08;0.57;;;;;;;;;;6250824;28;20047;-83
2022/05/21 09:03:53;;;;;;;6.47;1.33;;;;;;;;;;6236842;28;20473;-83
2022/05/21 09:07:04;;;;;;;7.68;1.00;;;;;;;;;;6250298;28;20026;-83
2022/05/21 09:10:05;;;;;;;7.55;1.48;;;;;;;;;;6252045;28;20029;-83
2022/05/21 09:13:15;;;;;;;1.80;0.60;;;;;;;;;;6250619;28;20044;-83
2022/05/21 09:19:40;;;;;;;2.40;0.80;;;;;;;;;;6249839;28;20037;-83
2022/05/21 09:22:53;;;;;;;6.68;1.23;;;;;;;;;;6248002;28;20056;-83
2022/05/21 09:26:05;;;;;;;3.72;0.75;;;;;;;;;;6250626;28;20017;-83
2022/05/21 09:29:16;;;;;;;9.77;1.02;;;;;;;;;;6256150;28;20384;-83
2022/05/21 09:32:23;;;;;;;4.60;1.23;;;;;;;;;;6262817;28;20021;-84
2022/05/21 09:35:46;;;;;;;3.67;0.82;;;;;;;;;;6257809;28;20049;-84
2022/05/21 09:38:54;;;;;;;6.95;0.90;;;;;;;;;;6255302;28;20041;-84
2022/05/21 09:42:06;;;;;;;4.25;0.95;;;;;;;;;;6253852;28;20025;-84
2022/05/21 09:45:22;;;;;;;8.60;0.80;;;;;;;;;;6260380;28;20021;-84
2022/05/21 09:48:22;;;;;;;5.88;0.93;;;;;;;;;;6262652;28;20043;-81
2022/05/21 09:51:31;;;;;;;7.77;1.27;;;;;;;;;;6257695;28;20022;-84
2022/05/21 09:54:40;;;;;;;8.77;0.98;;;;;;;;;;6266085;28;20047;-84
2022/05/21 09:57:44;;;;;;;2.22;1.08;;;;;;;;;;6251092;28;20530;-83
2022/05/21 10:00:52;;;;;;;1.48;1.10;;;;;;;;;;6256020;28;20021;-85
2022/05/21 10:03:54;;;;;;;3.90;1.08;;;;;;;;;;6253178;28;20010;-84
2022/05/21 10:06:54;;;;;;;2.65;1.38;;;;;;;;;;6248531;28;20056;-83
2022/05/21 10:13:16;;;;;;;5.22;1.33;;;;;;;;;;6255501;28;20025;-84
2022/05/21 10:16:35;;;;;;;6.30;0.77;;;;;;;;;;6243935;28;20034;-84
2022/05/21 10:20:05;;;;;;;0.95;0.70;;;;;;;;;;6264625;28;20025;-84
2022/05/21 10:23:17;;;;;;;10.13;3.58;;;;;;;;;;6179268;28;20091;-84
2022/05/21 10:26:36;;;;;;;6.63;1.35;;;;;;;;;;6255376;28;20022;-84
2022/05/21 10:29:37;;;;;;;3.58;1.00;;;;;;;;;;6253422;28;20013;-84
2022/05/21 10:32:56;;;;;;;7.50;2.03;;;;;;;;;;6248399;28;20018;-84
2022/05/21 10:35:56;;;;;;;3.15;0.93;;;;;;;;;;6245815;28;20496;-84
2022/05/21 10:39:15;;;;;;;11.43;1.37;;;;;;;;;;6252595;28;20033;-84
2022/05/21 10:42:34;;;;;;;2.33;0.55;;;;;;;;;;6246641;28;20021;-84
2022/05/21 10:45:45;;;;;;;3.20;1.58;;;;;;;;;;6247743;28;20365;-82
2022/05/21 10:49:08;;;;;;;3.88;1.15;;;;;;;;;;6244992;28;20021;-82
2022/05/21 10:52:09;;;;;;;4.50;1.20;;;;;;;;;;6200710;28;20056;-84
2022/05/21 10:55:09;;;;;;;1.17;0.80;;;;;;;;;;6250981;28;20041;-84
2022/05/21 10:58:10;;;;;;;1.83;0.65;;;;;;;;;;6244627;28;20072;-84
2022/05/21 11:01:15;;;;;;;4.27;0.60;;;;;;;;;;6247948;28;20025;-84
2022/05/21 11:04:15;;;;;;;4.13;1.23;;;;;;;;;;6247505;28;20048;-85
2022/05/21 11:07:26;;;;;;;8.70;0.77;;;;;;;;;;6242696;28;20037;-84
2022/05/21 11:10:29;;;;;;;4.32;1.42;;;;;;;;;;6258779;28;20049;-84
2022/05/21 11:13:29;;;;;;;1.63;1.02;;;;;;;;;;6245307;28;20029;-84
2022/05/21 11:16:35;;;;;;;7.10;1.00;;;;;;;;;;6270207;28;20039;-84
2022/05/21 11:19:43;;;;;;;2.28;0.75;;;;;;;;;;6254680;28;20053;-84
2022/05/21 11:22:46;;;;;;;8.15;1.20;;;;;;;;;;6245224;28;20112;-84
2022/05/21 11:25:49;;;;;;;3.25;1.45;;;;;;;;;;6248615;28;20525;-85
2022/05/21 11:28:53;;;;;;;2.85;0.80;;;;;;;;;;6241120;28;20377;-82
2022/05/21 11:38:41;;;;;;;2.00;1.00;;;;;;;;;;6241118;28;20564;-82
2022/05/21 11:42:05;;;;;;;9.88;1.50;;;;;;;;;;6249443;28;20036;-83
2022/05/21 11:45:08;;;;;;;7.75;1.10;;;;;;;;;;6234683;28;20386;-82
2022/05/21 11:48:12;;;;;;;2.30;0.80;;;;;;;;;;6249194;28;20104;-83
2022/05/21 11:51:22;;;;;;;12.38;1.33;;;;;;;;;;6241645;28;20044;-82
2022/05/21 11:54:41;;;;;;;1.77;0.77;;;;;;;;;;6253086;28;20053;-82
2022/05/21 11:57:43;;;;;;;5.35;0.65;;;;;;;;;;6249395;28;20046;-82
2022/05/21 12:00:44;;;;;;;8.00;0.85;;;;;;;;;;6239326;28;20028;-83
2022/05/21 12:03:52;;;;;;;3.42;0.70;;;;;;;;;;6251956;28;20024;-83
2022/05/21 12:06:53;;;;;;;3.90;0.93;;;;;;;;;;6242001;28;20104;-83
2022/05/21 12:09:58;;;;;;;1.70;0.60;;;;;;;;;;6246930;28;20024;-83
2022/05/21 12:12:58;;;;;;;8.68;0.85;;;;;;;;;;6245760;28;20022;-84
2022/05/21 12:16:00;;;;;;;1.33;0.70;;;;;;;;;;6243994;28;20079;-83
2022/05/21 12:19:00;;;;;;;;;;;;;;;;;;6242231;28;20095;-83
2022/05/21 12:22:02;;;;;;;4.77;1.00;;;;;;;;;;6246185;28;20274;-83
2022/05/21 12:25:02;;;;;;;;;;;;;;;;;;6249002;28;20021;-83
2022/05/21 12:28:03;;;;;;;2.05;0.70;;;;;;;;;;6244937;28;19921;-83
2022/05/21 12:31:07;;;;;;;5.43;1.20;;;;;;;;;;6251488;28;20316;-83
2022/05/21 12:34:14;;;;;;;7.57;1.77;;;;;;;;;;6247911;28;20100;-84
2022/05/21 12:37:18;;;;;;;2.28;0.68;;;;;;;;;;6250550;28;20091;-84
2022/05/21 12:40:29;;;;;;;8.93;1.27;;;;;;;;;;6245152;28;20017;-84
2022/05/21 12:43:44;;;;;;;1.33;0.68;;;;;;;;;;6260693;28;20013;-83
2022/05/21 12:46:48;;;;;;;4.22;1.17;;;;;;;;;;6255552;28;20041;-84
2022/05/21 12:49:50;;;;;;;1.60;0.77;;;;;;;;;;6255682;28;20024;-83
2022/05/21 12:52:57;;;;;;;2.85;0.70;;;;;;;;;;6249621;28;20033;-84
2022/05/21 12:56:17;;;;;;;2.05;0.68;;;;;;;;;;6257873;28;20034;-84
2022/05/21 12:59:19;;;;;;;2.50;0.50;;;;;;;;;;6256310;28;20087;-83
2022/05/21 13:02:20;;;;;;;3.85;0.80;;;;;;;;;;6256190;28;20061;-83
2022/05/21 13:05:26;;;;;;;3.80;1.30;;;;;;;;;;6249276;28;20449;-83
2022/05/21 13:08:28;;;;;;;1.48;0.60;;;;;;;;;;6249332;28;20013;-84
2022/05/21 13:11:35;;;;;;;4.53;1.00;;;;;;;;;;6241350;28;20026;-84
2022/05/21 13:14:37;;;;;;;6.20;0.98;;;;;;;;;;6240137;28;20022;-84
2022/05/21 13:17:56;;;;;;;3.03;0.60;;;;;;;;;;6240503;28;20101;-83
2022/05/21 13:21:15;;;;;;;1.10;0.73;;;;;;;;;;6266728;28;20029;-83
2022/05/21 13:24:22;;;;;;;3.40;0.80;;;;;;;;;;6255538;28;20523;-83
2022/05/21 13:27:22;;;;;;;2.35;0.90;;;;;;;;;;6253347;28;20064;-83
2022/05/21 13:30:35;;;;;;;5.82;0.88;;;;;;;;;;6252671;28;20018;-83
2022/05/21 13:33:36;;;;;;;2.45;0.50;;;;;;;;;;6252582;28;20020;-83
2022/05/21 13:36:37;;;;;;;5.20;0.90;;;;;;;;;;6243527;28;20504;-83
2022/05/21 13:39:37;;;;;;;0.90;0.50;;;;;;;;;;6244364;28;20032;-83
2022/05/21 13:42:38;;;;;;;;;;;;;;;;;;6240219;28;20051;-83
2022/05/21 13:45:42;;;;;;;6.57;1.47;;;;;;;;;;6253886;28;19913;-83
2022/05/21 13:48:45;;;;;;;3.13;1.05;;;;;;;;;;6245560;28;20492;-83
2022/05/21 13:51:48;;;;;;;10.20;1.60;;;;;;;;;;6249172;28;20005;-83
2022/05/21 13:54:49;;;;;;;3.97;1.10;;;;;;;;;;6236198;28;20064;-83
2022/05/21 13:57:49;;;;;;;6.25;1.33;;;;;;;;;;6237438;28;20021;-84
2022/05/21 14:00:49;;;;;;;4.97;0.83;;;;;;;;;;6239637;28;20009;-83
2022/05/21 14:03:50;;;;;;;2.30;0.77;;;;;;;;;;6235744;28;20042;-84
2022/05/21 14:06:50;;;;;;;1.07;0.60;;;;;;;;;;6240485;28;20052;-83
2022/05/21 14:09:53;;;;;;;4.38;1.00;;;;;;;;;;6241872;28;20072;-84
2022/05/21 14:12:54;;;;;;;6.80;1.95;;;;;;;;;;6245600;28;20550;-83
2022/05/21 14:15:55;;;;;;;2.75;1.95;;;;;;;;;;6245874;28;20560;-83
2022/05/21 14:18:58;;;;;;;6.10;2.17;;;;;;;;;;6240644;28;20017;-83
2022/05/21 14:22:03;;;;;;;1.52;1.42;;;;;;;;;;6255252;28;20461;-83
2022/05/21 14:25:24;;;;;;;3.08;1.30;;;;;;;;;;6242999;28;20469;-83
2022/05/21 14:28:24;;;;;;;3.70;1.17;;;;;;;;;;6240149;28;20022;-83
2022/05/21 14:31:33;;;;;;;5.50;1.10;;;;;;;;;;6257112;28;20028;-83
2022/05/21 14:34:34;;;;;;;4.18;0.88;;;;;;;;;;6252104;28;20009;-83
2022/05/21 14:37:34;;;;;;;1.47;1.07;;;;;;;;;;6251194;28;20028;-83
2022/05/21 14:40:48;;;;;;;1.43;0.80;;;;;;;;;;6251507;28;20729;-83
2022/05/21 14:43:48;;;;;;;3.80;1.33;;;;;;;;;;6251043;28;20017;-82
2022/05/21 14:53:27;;;;;;;6.25;1.25;;;;;;;;;;6244729;28;20037;-82
2022/05/21 14:56:28;;;;;;;2.50;1.05;;;;;;;;;;6250400;28;20017;-82
2022/05/21 14:59:29;;;;;;;2.25;0.93;;;;;;;;;;6242079;28;20397;-82
2022/05/21 15:02:29;;;;;;;4.73;0.87;;;;;;;;;;6234817;28;20025;-82
2022/05/21 15:05:32;;;;;;;7.33;0.60;;;;;;;;;;6235353;28;20088;-83
2022/05/21 15:08:34;;;;;;;3.78;1.10;;;;;;;;;;6247182;28;20002;-83
2022/05/21 15:11:34;;;;;;;2.80;1.00;;;;;;;;;;6240498;28;20017;-83
2022/05/21 15:14:38;;;;;;;3.63;1.13;;;;;;;;;;6232893;28;20091;-83
2022/05/21 15:17:38;;;;;;;5.93;1.17;;;;;;;;;;6245988;28;20032;-83
2022/05/21 15:20:38;;;;;;;2.57;0.80;;;;;;;;;;6240848;28;20022;-83
2022/05/21 15:23:40;;;;;;;4.93;1.33;;;;;;;;;;6247077;28;20014;-83
2022/05/21 15:26:40;;;;;;;18.73;2.53;;;;;;;;;;6245041;28;20486;-82
2022/05/21 15:29:41;;;;;;;1.90;0.50;;;;;;;;;;6250304;28;20121;-82
2022/05/21 15:32:42;;;;;;;4.50;1.45;;;;;;;;;;6248701;28;20017;-82
2022/05/21 15:35:42;;;;;;;6.93;2.63;;;;;;;;;;6250175;28;20385;-82
2022/05/21 15:38:43;;;;;;;4.63;0.77;;;;;;;;;;6242190;28;20053;-82
2022/05/21 15:41:43;;;;;;;3.17;0.50;;;;;;;;;;6246227;28;20017;-82
2022/05/21 15:44:47;;;;;;;5.03;1.20;;;;;;;;;;6235505;28;20026;-82
2022/05/21 15:47:47;;;;;;;3.63;0.68;;;;;;;;;;6238909;28;20579;-82
2022/05/21 15:50:47;;;;;;;6.43;1.03;;;;;;;;;;6245826;28;20016;-81
2022/05/21 15:53:49;;;;;;;1.90;1.00;;;;;;;;;;6246101;28;20048;-81
2022/05/21 15:56:50;;;;;;;5.00;0.88;;;;;;;;;;6248087;28;20017;-82
2022/05/21 15:59:51;;;;;;;1.55;0.70;;;;;;;;;;6229339;28;20571;-82
2022/05/21 16:02:52;;;;;;;0.77;0.63;;;;;;;;;;6245945;28;20025;-81
2022/05/21 16:05:52;;;;;;;2.67;1.00;;;;;;;;;;6233927;28;20025;-81
2022/05/21 16:08:52;;;;;;;3.53;1.30;;;;;;;;;;6245186;28;20028;-81
2022/05/21 16:11:53;;;;;;;2.97;0.83;;;;;;;;;;6245031;28;20052;-82
2022/05/21 16:14:53;;;;;;;2.87;1.23;;;;;;;;;;6232714;28;20096;-82
2022/05/21 16:17:54;;;;;;;1.00;0.70;;;;;;;;;;6231932;28;20090;-81
2022/05/21 16:20:55;;;;;;;5.23;1.07;;;;;;;;;;6235068;28;20022;-82
2022/05/21 16:23:56;;;;;;;0.67;0.67;;;;;;;;;;6234632;28;20021;-82
2022/05/21 16:27:12;;;;;;;;;;;;;;;;;;6240425;28;20449;-82
2022/05/21 16:30:12;;;;;;;1.50;0.75;;;;;;;;;;6259495;28;19909;-82
2022/05/21 16:33:16;;;;;;;7.13;1.23;;;;;;;;;;6251838;28;20029;-82
2022/05/21 16:36:16;;;;;;;2.42;1.00;;;;;;;;;;6245393;28;20025;-82
2022/05/21 16:39:16;;;;;;;0.60;0.60;;;;;;;;;;6248015;28;20033;-82
2022/05/21 16:42:20;;;;;;;3.43;0.80;;;;;;;;;;6250198;28;20057;-81
2022/05/21 16:45:24;;;;;;;0.73;0.68;;;;;;;;;;6251714;28;20085;-81
2022/05/21 16:48:27;;;;;;;1.85;0.90;;;;;;;;;;6251276;28;20028;-81
2022/05/21 16:51:27;;;;;;;2.15;1.02;;;;;;;;;;6251519;28;20025;-82
2022/05/21 16:54:29;;;;;;;2.50;1.23;;;;;;;;;;6252065;28;20493;-82
2022/05/21 16:57:29;;;;;;;1.70;0.75;;;;;;;;;;6249688;28;20021;-82
2022/05/21 17:00:31;;;;;;;2.43;0.70;;;;;;;;;;6243891;28;20035;-81
2022/05/21 17:03:32;;;;;;;3.33;1.15;;;;;;;;;;6244760;28;20044;-82
2022/05/21 17:06:32;;;;;;;1.07;0.87;;;;;;;;;;6243847;28;20026;-81
2022/05/21 17:09:33;;;;;;;2.17;1.40;;;;;;;;;;6240931;28;20013;-82
2022/05/21 17:12:35;;;;;;;8.05;3.22;;;;;;;;;;6241008;28;20041;-81
2022/05/21 17:15:36;;;;;;;2.97;1.70;;;;;;;;;;6239729;28;20017;-81
2022/05/21 17:18:36;;;;;;;5.07;1.47;;;;;;;;;;6245615;28;20739;-80
2022/05/21 17:21:49;;;;;;;4.20;2.10;;;;;;;;;;6239186;28;20017;-80
2022/05/21 17:24:49;;;;;;;1.42;0.85;;;;;;;;;;6244351;28;20010;-80
2022/05/21 17:31:10;;;;;;;3.88;1.70;;;;;;;;;;6239440;28;20033;-81
2022/05/21 17:34:10;;;;;;;4.72;1.85;;;;;;;;;;6245880;28;20022;-81
2022/05/21 17:37:10;;;;;;;7.00;1.00;;;;;;;;;;6240118;28;20539;-81
2022/05/21 17:40:12;;;;;;;5.70;1.27;;;;;;;;;;6241701;28;20029;-81
2022/05/21 17:43:14;;;;;;;4.28;1.80;;;;;;;;;;6245515;28;20385;-82
2022/05/21 17:46:14;;;;;;;;;;;;;;;;;;6244157;28;20018;-82
2022/05/21 17:49:14;;;;;;;5.60;1.73;;;;;;;;;;6263727;28;20462;-82
2022/05/21 17:52:17;;;;;;;3.80;1.10;;;;;;;;;;6240603;28;20018;-79
2022/05/21 17:55:19;;;;;;;4.15;1.52;;;;;;;;;;6257495;28;20131;-79
2022/05/21 17:58:20;;;;;;;5.93;1.83;;;;;;;;;;6250441;28;20370;-81
2022/05/21 18:01:21;;;;;;;4.93;1.90;;;;;;;;;;6256535;28;20045;-80
2022/05/21 18:04:22;;;;;;;;;;;;;;;;;;6254457;28;20014;-82
2022/05/21 18:07:22;;;;;;;3.78;1.85;;;;;;;;;;6254833;28;19939;-81
2022/05/21 18:10:22;;;;;;;3.90;1.67;;;;;;;;;;6254967;28;20091;-80
2022/05/21 18:13:23;;;;;;;4.10;1.47;;;;;;;;;;6248754;28;20021;-79
2022/05/21 18:20:02;;;;;;;2.72;1.42;;;;;;;;;;6223478;28;20100;-81
2022/05/21 18:23:02;;;;;;;2.20;1.07;;;;;;;;;;6223047;28;20053;-80
2022/05/21 18:26:03;;;;;;;3.73;1.23;;;;;;;;;;6252799;28;20031;-81
2022/05/21 18:29:03;;;;;;;6.17;1.87;;;;;;;;;;6249324;28;20022;-81
2022/05/21 18:32:04;;;;;;;4.40;1.40;;;;;;;;;;6249461;28;20025;-80
2022/05/21 18:35:04;;;;;;;5.77;2.40;;;;;;;;;;6252944;28;20016;-81
2022/05/21 18:38:05;;;;;;;2.17;1.37;;;;;;;;;;6256017;28;20020;-81
2022/05/21 18:41:10;;;;;;;2.33;1.57;;;;;;;;;;6251244;28;20017;-81
2022/05/21 18:44:10;;;;;;;1.40;1.30;;;;;;;;;;6246843;28;20021;-81
2022/05/21 18:47:11;;;;;;;2.63;1.40;;;;;;;;;;6247629;28;20069;-82
2022/05/21 18:50:11;;;;;;;4.47;1.60;;;;;;;;;;6253700;28;20075;-81
2022/05/21 18:53:12;;;;;;;6.10;1.23;;;;;;;;;;6243535;28;20644;-82
2022/05/21 18:56:12;;;;;;;1.97;1.13;;;;;;;;;;6247131;28;20084;-81
2022/05/21 18:59:13;;;;;;;3.37;1.80;;;;;;;;;;6249216;28;20457;-82
2022/05/21 19:02:14;;;;;;;3.93;1.27;;;;;;;;;;6255122;28;20021;-82
2022/05/21 19:05:15;;;;;;;4.88;1.73;;;;;;;;;;6244144;28;20017;-82